createdAt,value
2022-11-17T00:09:04.555Z,99016.28
2022-11-17T00:19:35.062Z,99009.19
2022-11-17T00:29:39.653Z,99029.50
2022-11-17T00:39:42.834Z,99024.13
2022-11-17T00:49:47.344Z,99017.87
2022-11-17T00:59:50.464Z,99007.22
2022-11-17T01:09:54.906Z,98999.44
2022-11-17T01:19:58.034Z,99003.16
2022-11-17T01:30:02.455Z,98982.78
2022-11-17T01:40:07.003Z,98970.47
2022-11-17T01:50:20.437Z,98966.69
2022-11-17T02:00:23.641Z,98964.84
2022-11-17T02:10:28.967Z,98960.50
2022-11-17T02:20:42.647Z,98993.59
2022-11-17T02:30:55.009Z,98984.47
2022-11-17T02:41:10.294Z,98986.87
2022-11-17T02:51:19.807Z,98986.41
2022-11-17T03:01:43.209Z,98960.91
2022-11-17T03:11:51.159Z,98964.87
2022-11-17T03:21:57.907Z,98952.16
2022-11-17T03:32:04.978Z,98933.72
2022-11-17T03:42:11.532Z,98924.72
2022-11-17T03:52:16.369Z,98922.28
2022-11-17T04:02:19.879Z,98943.69
2022-11-17T04:12:41.752Z,98959.72
2022-11-17T04:22:44.970Z,98960.12
2022-11-17T04:32:49.377Z,98950.75
2022-11-17T04:42:52.897Z,98970.56
2022-11-17T04:52:57.299Z,98976.44
2022-11-17T05:03:00.435Z,98972.59
2022-11-17T05:13:25.012Z,98997.28
2022-11-17T05:23:45.609Z,98987.06
2022-11-17T05:33:50.371Z,99012.06
2022-11-17T05:43:53.727Z,98996.03
2022-11-17T05:53:58.178Z,99012.94
2022-11-17T06:04:02.994Z,99016.28
2022-11-17T06:14:07.463Z,99026.44
2022-11-17T06:24:10.857Z,99029.81
2022-11-17T06:34:15.381Z,99043.44
2022-11-17T06:44:18.539Z,99049.00
2022-11-17T06:54:23.100Z,99044.03
2022-11-17T07:04:26.286Z,99050.38
2022-11-17T07:14:30.803Z,99047.19
2022-11-17T07:24:34.012Z,99053.16
2022-11-17T07:34:38.462Z,99044.22
2022-11-17T07:44:41.600Z,99035.63
2022-11-17T07:54:46.118Z,99030.38
2022-11-17T08:04:49.277Z,99026.06
2022-11-17T08:14:53.846Z,99044.31
2022-11-17T08:24:56.973Z,99041.91
2022-11-17T08:35:01.428Z,99055.72
2022-11-17T08:45:04.876Z,99058.06
2022-11-17T08:55:10.418Z,99062.25
2022-11-17T09:05:13.628Z,99074.25
2022-11-17T09:15:18.250Z,99085.09
2022-11-17T09:25:21.456Z,99097.72
2022-11-17T09:35:26.033Z,99101.75
2022-11-17T09:45:31.601Z,99111.63
2022-11-17T09:55:38.383Z,99106.94
2022-11-17T10:05:41.679Z,99101.91
2022-11-17T10:15:49.305Z,99088.34
2022-11-17T10:25:58.357Z,99086.16
2022-11-17T10:36:04.538Z,99078.47
2022-11-17T10:46:14.512Z,99082.41
2022-11-17T10:56:21.723Z,99090.97
2022-11-17T11:06:26.788Z,99096.88
2022-11-17T11:16:31.661Z,99097.59
2022-11-17T11:26:47.018Z,99111.44
2022-11-17T11:36:54.068Z,99120.12
2022-11-17T11:47:00.660Z,99116.91
2022-11-17T11:57:07.589Z,99136.19
2022-11-17T12:07:14.180Z,99118.47
2022-11-17T12:17:25.985Z,99117.91
2022-11-17T12:27:33.352Z,99132.06
2022-11-17T12:37:38.270Z,99129.66
2022-11-17T12:47:44.388Z,99126.78
2022-11-17T12:57:57.271Z,99117.03
2022-11-17T13:08:21.347Z,99122.44
2022-11-17T13:18:32.152Z,99127.53
2022-11-17T13:28:35.483Z,99139.63
2022-11-17T13:38:48.333Z,99142.75
2022-11-17T13:48:52.441Z,99158.00
2022-11-17T13:58:57.130Z,99159.84
2022-11-17T14:09:05.713Z,99154.94
2022-11-17T14:19:28.458Z,99160.31
2022-11-17T14:29:31.587Z,99166.00
2022-11-17T14:39:36.265Z,99162.63
2022-11-17T14:49:40.033Z,99161.78
2022-11-17T14:59:44.514Z,99150.38
2022-11-17T15:09:47.683Z,99156.09
2022-11-17T15:19:52.268Z,99139.16
2022-11-17T15:29:55.383Z,99145.84
2022-11-17T15:40:00.128Z,99175.91
2022-11-17T15:50:03.377Z,99163.94
2022-11-17T16:00:09.978Z,99155.94
2022-11-17T16:10:13.003Z,99153.25
2022-11-17T16:20:18.527Z,99138.34
2022-11-17T16:30:21.848Z,99142.16
2022-11-17T16:40:26.384Z,99146.94
2022-11-17T16:50:29.415Z,99162.63
2022-11-17T17:00:34.778Z,99196.91
2022-11-17T17:10:38.292Z,99179.25
2022-11-17T17:20:51.393Z,99191.50
2022-11-17T17:30:55.277Z,99217.66
2022-11-17T17:41:06.237Z,99209.88
2022-11-17T17:51:10.802Z,99211.38
2022-11-17T18:01:17.008Z,99196.47
2022-11-17T18:11:21.604Z,99197.41
2022-11-17T18:21:27.192Z,99188.75
2022-11-17T18:31:32.503Z,99173.91
2022-11-17T18:41:37.313Z,99183.38
2022-11-17T18:51:40.691Z,99169.44
2022-11-17T19:01:45.625Z,99170.81
2022-11-17T19:11:48.798Z,99154.44
2022-11-17T19:21:53.313Z,99171.13
2022-11-17T19:31:56.445Z,99153.75
2022-11-17T19:42:01.143Z,99155.22
2022-11-17T19:52:04.678Z,99146.72
2022-11-17T20:02:11.838Z,99153.44
2022-11-17T20:12:15.244Z,99174.50
2022-11-17T20:22:20.061Z,99171.84
2022-11-17T20:32:23.354Z,99132.13
2022-11-17T20:42:27.938Z,99176.09
2022-11-17T20:52:32.390Z,99180.56
2022-11-17T21:02:36.899Z,99167.84
2022-11-17T21:12:40.156Z,99172.19
2022-11-17T21:22:44.679Z,99153.88
2022-11-17T21:32:47.880Z,99146.63
2022-11-17T21:42:52.484Z,99155.81
2022-11-17T21:52:55.593Z,99163.69
2022-11-17T22:03:00.131Z,99166.16
2022-11-17T22:13:04.763Z,99154.94
2022-11-17T22:23:09.208Z,99150.62
2022-11-17T22:33:12.840Z,99145.09
2022-11-17T22:43:17.276Z,99130.56
2022-11-17T22:53:20.353Z,99120.31
2022-11-17T23:03:25.020Z,99125.41
2022-11-17T23:13:28.445Z,99121.75
2022-11-17T23:23:35.011Z,99110.94
2022-11-17T23:33:39.284Z,99121.12
2022-11-17T23:43:44.083Z,99112.97
2022-11-17T23:53:47.407Z,99125.66
